createdAt,value
2022-08-05T00:06:54.831Z,100889.00
2022-08-05T00:17:19.565Z,100873.00
2022-08-05T00:27:43.335Z,100865.00
2022-08-05T00:38:05.080Z,100862.00
2022-08-05T00:48:32.726Z,100859.00
2022-08-05T00:58:55.090Z,100864.00
2022-08-05T01:09:19.961Z,100885.00
2022-08-05T01:20:00.829Z,100882.00
2022-08-05T01:30:33.737Z,100880.00
2022-08-05T01:40:59.831Z,100889.00
2022-08-05T01:51:29.406Z,100868.00
2022-08-05T02:01:55.507Z,100873.00
2022-08-05T02:12:26.251Z,100879.00
2022-08-05T02:22:51.476Z,100856.00
2022-08-05T02:33:24.528Z,100858.00
2022-08-05T02:44:02.605Z,100856.00
2022-08-05T02:54:36.414Z,100866.00
2022-08-05T03:05:00.032Z,100862.00
2022-08-05T03:15:24.358Z,100858.00
2022-08-05T03:26:04.339Z,100847.00
2022-08-05T03:36:30.580Z,100856.00
2022-08-05T03:46:52.488Z,100847.00
2022-08-05T03:57:29.090Z,100850.00
2022-08-05T04:08:14.931Z,100858.00
2022-08-05T04:18:54.378Z,100866.00
2022-08-05T04:29:15.986Z,100844.00
2022-08-05T04:39:40.076Z,100830.00
2022-08-05T04:50:11.065Z,100875.00
2022-08-05T05:00:35.011Z,100892.00
2022-08-05T05:10:57.130Z,100871.00
2022-08-05T05:21:20.331Z,100879.00
2022-08-05T05:31:41.801Z,100884.00
2022-08-05T05:42:09.773Z,100912.00
2022-08-05T05:52:38.033Z,100946.00
2022-08-05T06:03:39.720Z,100931.00
2022-08-05T06:13:50.475Z,101001.00
2022-08-05T06:24:17.476Z,101009.00
2022-08-05T06:34:47.702Z,101006.00
2022-08-05T06:45:21.277Z,101005.00
2022-08-05T06:55:58.943Z,101005.00
2022-08-05T07:06:22.803Z,101005.00
2022-08-05T07:18:00.085Z,101017.00
2022-08-05T07:27:56.346Z,101061.00
2022-08-05T07:38:32.015Z,101045.00
2022-08-05T07:49:05.363Z,101043.00
2022-08-05T07:59:39.003Z,101032.00
2022-08-05T08:10:05.683Z,101040.00
2022-08-05T08:20:45.293Z,101037.00
2022-08-05T08:31:14.580Z,100998.00
2022-08-05T08:41:51.664Z,101062.00
2022-08-05T08:52:26.122Z,101078.00
2022-08-05T09:02:50.102Z,101069.00
2022-08-05T09:13:15.173Z,101076.00
2022-08-05T09:23:43.579Z,101108.00
2022-08-05T09:34:09.716Z,101134.00
2022-08-05T09:44:36.621Z,101162.00
2022-08-05T09:55:21.150Z,101125.00
2022-08-05T10:05:46.952Z,101094.00
2022-08-05T10:16:32.076Z,101078.00
2022-08-05T10:26:56.215Z,101069.00
2022-08-05T10:37:26.727Z,101131.00
2022-08-05T10:48:35.262Z,101119.00
2022-08-05T10:59:07.350Z,101125.00
2022-08-05T11:09:45.344Z,101065.00
2022-08-05T11:20:30.278Z,101078.00
2022-08-05T11:31:12.693Z,101091.00
2022-08-05T11:42:01.947Z,101121.00
2022-08-05T11:52:29.352Z,101121.00
2022-08-05T12:02:52.478Z,101114.00
2022-08-05T12:13:49.111Z,101113.00
2022-08-05T12:24:04.439Z,101121.00
2022-08-05T12:34:29.215Z,101124.00
2022-08-05T12:44:52.300Z,101111.00
2022-08-05T12:55:22.602Z,101119.00
2022-08-05T13:05:50.010Z,101118.00
2022-08-05T13:16:15.514Z,101113.00
2022-08-05T13:26:39.968Z,101124.00
2022-08-05T13:37:02.828Z,101096.00
2022-08-05T13:47:35.909Z,101116.00
2022-08-05T13:58:08.066Z,101123.00
2022-08-05T14:08:35.018Z,101122.00
2022-08-05T14:18:57.242Z,101140.00
2022-08-05T14:29:27.369Z,101138.00
2022-08-05T14:39:56.784Z,101155.00
2022-08-05T14:50:20.041Z,101150.00
2022-08-05T15:00:58.245Z,101162.00
2022-08-05T15:11:22.228Z,101151.00
2022-08-05T15:22:04.002Z,101167.00
2022-08-05T15:32:28.842Z,101153.00
2022-08-05T15:42:56.752Z,101168.00
2022-08-05T15:53:23.390Z,101195.00
2022-08-05T16:03:50.536Z,101200.00
2022-08-05T16:14:17.159Z,101198.00
2022-08-05T16:24:51.829Z,101224.00
2022-08-05T16:35:16.800Z,101262.00
2022-08-05T16:46:05.422Z,101280.00
2022-08-05T16:56:23.905Z,101265.00
2022-08-05T17:06:45.455Z,101283.00
2022-08-05T17:17:42.549Z,101326.00
2022-08-05T17:28:05.722Z,101356.00
2022-08-05T17:38:37.449Z,101369.00
2022-08-05T17:49:02.102Z,101380.00
2022-08-05T17:59:27.287Z,101426.00
2022-08-05T18:09:59.476Z,101450.00
2022-08-05T18:20:29.535Z,101438.00
2022-08-05T18:30:53.466Z,101471.00
2022-08-05T18:41:57.092Z,101479.00
2022-08-05T18:52:15.504Z,101485.00
2022-08-05T19:02:38.680Z,101523.00
2022-08-05T19:13:00.932Z,101517.00
2022-08-05T19:24:05.087Z,101553.00
2022-08-05T19:34:06.994Z,101564.00
2022-08-05T19:44:31.656Z,101584.00
2022-08-05T19:54:53.066Z,101601.00
2022-08-05T20:05:24.720Z,101590.00
2022-08-05T20:15:52.114Z,101601.00
2022-08-05T20:26:20.728Z,101615.00
2022-08-05T20:36:45.253Z,101649.00
2022-08-05T20:47:08.391Z,101669.00
2022-08-05T20:57:43.963Z,101691.00
2022-08-05T21:08:09.463Z,101716.00
2022-08-05T21:18:32.214Z,101713.00
2022-08-05T21:29:03.536Z,101727.00
2022-08-05T21:39:26.640Z,101723.00
2022-08-05T21:50:00.902Z,101742.00
2022-08-05T22:00:23.626Z,101751.00
2022-08-05T22:10:47.414Z,101754.00
2022-08-05T22:21:19.315Z,101764.00
2022-08-05T22:31:44.424Z,101780.00
2022-08-05T22:42:12.103Z,101803.00
2022-08-05T22:52:36.199Z,101792.00
2022-08-05T23:02:58.545Z,101801.00
2022-08-05T23:13:30.730Z,101796.00
2022-08-05T23:23:56.883Z,101795.00
2022-08-05T23:34:24.823Z,101803.00
2022-08-05T23:44:46.792Z,101814.00
2022-08-05T23:55:17.950Z,101831.00
